Time;durP1;ratioP1;P1;durP2;ratioP2;P2;SDS_P1;SDS_P2;PMS_P1;PMS_P2;Temp;Humidity;BMP_temperature;BMP_pressure;BME280_temperature;BME280_humidity;BME280_pressure;Samples;Min_cycle;Max_cycle;Signal;HPM_P1;HPM_P2
2021/03/14 00:00:37;;;;;;;3.42;1.38;;;4.00;99.90;;;;;;5071634;28;20056;-48
2021/03/14 00:03:08;;;;;;;2.67;1.00;;;4.10;99.90;;;;;;5078611;28;20032;-48
2021/03/14 00:05:36;;;;;;;1.77;0.90;;;4.30;99.90;;;;;;5091874;28;20020;-53
2021/03/14 00:08:02;;;;;;;5.03;1.50;;;4.40;99.90;;;;;;5091937;28;20028;-51
2021/03/14 00:10:28;;;;;;;1.63;0.85;;;4.60;99.90;;;;;;5091122;28;20088;-51
2021/03/14 00:12:53;;;;;;;2.97;1.13;;;4.70;99.90;;;;;;5091665;28;20090;-51
2021/03/14 00:15:21;;;;;;;6.30;1.20;;;4.80;99.90;;;;;;5091743;28;20467;-49
2021/03/14 00:17:46;;;;;;;2.03;1.00;;;4.90;99.90;;;;;;5091500;28;20028;-49
2021/03/14 00:20:12;;;;;;;3.15;0.80;;;5.00;99.90;;;;;;5091607;28;20035;-48
2021/03/14 00:22:38;;;;;;;2.83;1.00;;;5.10;99.90;;;;;;5091557;28;20024;-48
2021/03/14 00:25:08;;;;;;;4.65;1.17;;;5.10;99.90;;;;;;5090776;28;20039;-51
2021/03/14 00:27:34;;;;;;;3.20;1.23;;;5.20;99.90;;;;;;5091532;28;20184;-51
2021/03/14 00:30:00;;;;;;;4.28;1.10;;;5.30;99.90;;;;;;5091287;28;20049;-48
2021/03/14 00:32:26;;;;;;;1.65;0.90;;;5.30;99.90;;;;;;5091460;28;20067;-50
2021/03/14 00:34:51;;;;;;;4.28;1.20;;;5.30;99.90;;;;;;5091015;28;20028;-51
2021/03/14 00:37:17;;;;;;;1.90;0.98;;;5.40;99.90;;;;;;5091433;28;20478;-48
2021/03/14 00:39:42;;;;;;;4.47;1.10;;;5.40;99.90;;;;;;5091250;28;20391;-53
2021/03/14 00:42:08;;;;;;;4.10;1.17;;;5.40;99.90;;;;;;5090171;28;20375;-49
2021/03/14 00:44:33;;;;;;;3.95;1.48;;;5.50;99.90;;;;;;5090771;28;20020;-49
2021/03/14 00:46:59;;;;;;;2.28;1.20;;;5.50;99.90;;;;;;5080759;28;20025;-51
2021/03/14 00:49:25;;;;;;;2.22;0.73;;;5.60;99.90;;;;;;5070964;28;20020;-53
2021/03/14 00:51:51;;;;;;;1.63;0.93;;;5.50;99.90;;;;;;5070940;28;20032;-49
2021/03/14 00:54:17;;;;;;;2.50;1.02;;;5.50;99.90;;;;;;5070864;28;20441;-54
2021/03/14 00:56:42;;;;;;;1.70;1.13;;;5.60;99.90;;;;;;5069960;28;20028;-48
2021/03/14 00:59:08;;;;;;;3.60;1.02;;;5.60;99.00;;;;;;5070929;28;20024;-47
2021/03/14 01:01:34;;;;;;;3.45;1.02;;;5.60;98.80;;;;;;5070535;28;20028;-50
2021/03/14 01:03:59;;;;;;;4.65;1.10;;;5.60;98.80;;;;;;5085208;28;20034;-52
2021/03/14 01:06:25;;;;;;;2.15;0.93;;;5.60;98.30;;;;;;5090871;28;20082;-48
2021/03/14 01:08:51;;;;;;;2.20;0.90;;;5.60;97.90;;;;;;5090767;28;20102;-46
2021/03/14 01:11:16;;;;;;;1.98;1.00;;;5.60;98.30;;;;;;5090047;28;20031;-49
2021/03/14 01:13:42;;;;;;;1.63;0.82;;;5.60;98.00;;;;;;5088023;28;20028;-53
2021/03/14 01:16:08;;;;;;;3.70;0.95;;;5.50;97.90;;;;;;5090691;28;20035;-52
2021/03/14 01:18:33;;;;;;;4.18;1.00;;;5.60;97.80;;;;;;5088715;28;20494;-52
2021/03/14 01:20:59;;;;;;;2.45;0.95;;;5.60;97.80;;;;;;5090355;28;20032;-50
2021/03/14 01:23:25;;;;;;;4.45;1.50;;;5.50;97.40;;;;;;5090691;28;20031;-52
2021/03/14 01:25:50;;;;;;;1.17;0.90;;;5.50;97.70;;;;;;5089641;28;20087;-52
2021/03/14 01:28:16;;;;;;;3.97;1.20;;;5.50;97.80;;;;;;5090671;28;20047;-51
2021/03/14 01:30:41;;;;;;;1.70;0.82;;;5.50;97.90;;;;;;5090465;28;20111;-49
2021/03/14 01:33:07;;;;;;;2.55;1.20;;;5.50;97.70;;;;;;5089305;28;20051;-48
2021/03/14 01:35:32;;;;;;;3.28;0.95;;;5.50;97.30;;;;;;5090335;28;20032;-49
2021/03/14 01:37:58;;;;;;;1.95;0.90;;;5.50;97.60;;;;;;5090524;28;20100;-52
2021/03/14 01:40:24;;;;;;;2.17;0.77;;;5.50;97.30;;;;;;5084616;28;20033;-50
2021/03/14 01:42:50;;;;;;;3.97;0.98;;;5.50;96.80;;;;;;5070198;28;20058;-50
2021/03/14 01:45:17;;;;;;;4.38;1.33;;;5.50;96.70;;;;;;5069117;28;20024;-49
2021/03/14 01:47:44;;;;;;;3.67;1.00;;;5.60;97.30;;;;;;5070225;28;20082;-49
2021/03/14 01:50:14;;;;;;;4.15;1.35;;;5.50;97.90;;;;;;5070104;28;20302;-50
2021/03/14 01:52:40;;;;;;;4.72;1.00;;;5.50;98.30;;;;;;5070277;28;20392;-50
2021/03/14 01:55:07;;;;;;;3.42;0.80;;;5.50;98.60;;;;;;5069249;28;20052;-49
2021/03/14 01:57:34;;;;;;;2.33;0.85;;;5.40;99.10;;;;;;5072529;28;20048;-47
2021/03/14 02:00:00;;;;;;;3.42;1.33;;;5.40;99.30;;;;;;5074180;28;20039;-46
2021/03/14 02:02:26;;;;;;;1.98;1.10;;;5.30;99.60;;;;;;5074859;28;20041;-52
2021/03/14 02:04:52;;;;;;;4.10;1.25;;;5.30;99.50;;;;;;5075721;28;20024;-49
2021/03/14 02:07:18;;;;;;;5.72;1.50;;;5.30;99.80;;;;;;5075615;28;20020;-49
2021/03/14 02:09:44;;;;;;;3.85;1.30;;;5.20;99.90;;;;;;5075685;28;20032;-52
2021/03/14 02:12:14;;;;;;;2.38;1.13;;;5.20;99.90;;;;;;5074627;28;20111;-49
2021/03/14 02:14:41;;;;;;;3.08;1.85;;;5.20;99.80;;;;;;5075770;28;20046;-49
2021/03/14 02:17:17;;;;;;;3.28;1.35;;;5.20;99.80;;;;;;5075387;28;20040;-49
2021/03/14 02:19:54;;;;;;;1.58;1.05;;;5.20;99.60;;;;;;5075592;28;20112;-48
2021/03/14 02:22:22;;;;;;;4.43;1.30;;;5.20;99.00;;;;;;5075230;28;20028;-51
2021/03/14 02:24:59;;;;;;;4.38;1.58;;;5.20;99.10;;;;;;5074771;28;20024;-49
2021/03/14 02:27:25;;;;;;;3.58;1.55;;;5.20;99.10;;;;;;5075363;28;20025;-52
2021/03/14 02:29:51;;;;;;;2.65;1.48;;;5.20;99.00;;;;;;5075388;28;20016;-47
2021/03/14 02:32:20;;;;;;;4.78;1.38;;;5.20;98.90;;;;;;5074041;28;20060;-48
2021/03/14 02:34:51;;;;;;;3.70;1.23;;;5.30;98.30;;;;;;5075366;28;20021;-49
2021/03/14 02:37:20;;;;;;;7.35;1.55;;;5.30;98.60;;;;;;5074906;28;20455;-50
2021/03/14 02:39:46;;;;;;;3.88;1.40;;;5.30;98.40;;;;;;5074889;28;20055;-52
2021/03/14 02:42:13;;;;;;;3.13;1.50;;;5.30;98.60;;;;;;5074717;28;20024;-48
2021/03/14 02:44:47;;;;;;;2.47;1.40;;;5.30;98.60;;;;;;5075182;28;20035;-48
2021/03/14 02:47:13;;;;;;;3.33;1.52;;;5.40;98.70;;;;;;5075055;28;20025;-50
2021/03/14 02:49:39;;;;;;;2.85;1.30;;;5.40;98.30;;;;;;5074978;28;20518;-48
2021/03/14 02:52:06;;;;;;;1.33;1.23;;;5.40;98.60;;;;;;5074586;28;20052;-49
2021/03/14 02:54:33;;;;;;;5.78;1.33;;;5.40;98.40;;;;;;5074889;28;20056;-52
2021/03/14 02:57:00;;;;;;;3.47;1.63;;;5.40;98.60;;;;;;5073872;28;20420;-48
2021/03/14 02:59:26;;;;;;;3.83;1.77;;;5.40;98.30;;;;;;5074945;28;20028;-48
2021/03/14 03:01:53;;;;;;;5.88;1.35;;;5.40;98.50;;;;;;5074558;28;20116;-52
2021/03/14 03:04:22;;;;;;;4.45;1.50;;;5.40;98.90;;;;;;5074809;28;20418;-48
2021/03/14 03:06:50;;;;;;;5.38;1.85;;;5.50;99.60;;;;;;5074408;28;20025;-50
2021/03/14 03:09:17;;;;;;;2.90;1.55;;;5.40;99.90;;;;;;5073662;28;20057;-50
2021/03/14 03:11:44;;;;;;;4.85;1.95;;;5.40;99.90;;;;;;5073640;28;20063;-48
2021/03/14 03:14:14;;;;;;;3.35;1.90;;;5.30;99.90;;;;;;5074621;28;20025;-52
2021/03/14 03:16:47;;;;;;;5.57;1.85;;;5.30;99.90;;;;;;5074474;28;20025;-50
2021/03/14 03:19:15;;;;;;;3.38;2.50;;;5.30;99.90;;;;;;5074195;28;20104;-49
2021/03/14 03:21:42;;;;;;;4.03;1.88;;;5.20;99.90;;;;;;5074293;28;20059;-47
2021/03/14 03:24:08;;;;;;;4.00;2.10;;;5.20;99.90;;;;;;5074241;28;20028;-54
2021/03/14 03:26:41;;;;;;;4.82;2.10;;;5.10;99.90;;;;;;5073446;28;20020;-48
2021/03/14 03:29:11;;;;;;;7.50;2.00;;;5.10;99.90;;;;;;5074097;28;20021;-51
2021/03/14 03:31:37;;;;;;;5.60;2.47;;;5.10;99.90;;;;;;5074108;28;20035;-49
2021/03/14 03:34:07;;;;;;;3.38;2.20;;;5.00;99.90;;;;;;5074125;28;20494;-49
2021/03/14 03:36:33;;;;;;;3.58;2.13;;;5.00;99.90;;;;;;5074234;28;20036;-49
2021/03/14 03:39:00;;;;;;;5.05;2.50;;;4.90;99.90;;;;;;5073673;28;20029;-52
2021/03/14 03:41:28;;;;;;;3.75;1.95;;;5.00;99.90;;;;;;5073146;28;20036;-48
2021/03/14 03:43:57;;;;;;;3.72;2.10;;;4.90;99.90;;;;;;5073763;28;20029;-49
2021/03/14 03:46:23;;;;;;;6.22;1.92;;;4.90;99.90;;;;;;5074000;28;20094;-50
2021/03/14 03:48:51;;;;;;;5.15;2.13;;;4.90;99.90;;;;;;5073725;28;20471;-52
2021/03/14 03:51:23;;;;;;;4.88;2.63;;;4.80;99.90;;;;;;5073828;28;20039;-51
2021/03/14 03:53:49;;;;;;;3.75;2.00;;;4.80;99.90;;;;;;5073417;28;20115;-49
2021/03/14 03:56:15;;;;;;;4.72;2.75;;;4.70;99.90;;;;;;5072833;28;20483;-49
2021/03/14 03:58:43;;;;;;;3.50;2.28;;;4.70;99.90;;;;;;5073561;28;20558;-51
2021/03/14 04:01:10;;;;;;;2.35;1.73;;;4.70;99.90;;;;;;5073584;28;20051;-47
2021/03/14 04:03:39;;;;;;;3.92;1.90;;;4.70;99.90;;;;;;5072365;28;20027;-51
2021/03/14 04:06:05;;;;;;;7.43;2.60;;;4.70;99.90;;;;;;5072133;28;20056;-54
2021/03/14 04:08:33;;;;;;;3.38;2.08;;;4.70;99.90;;;;;;5073178;28;20032;-47
2021/03/14 04:10:59;;;;;;;2.75;1.60;;;4.70;99.90;;;;;;5072555;28;20471;-49
2021/03/14 04:13:26;;;;;;;5.28;2.10;;;4.70;99.90;;;;;;5073233;28;20592;-48
2021/03/14 04:15:51;;;;;;;2.40;1.92;;;4.70;99.90;;;;;;5073449;28;20029;-50
2021/03/14 04:18:18;;;;;;;2.38;1.65;;;4.70;99.90;;;;;;5073157;28;20428;-51
2021/03/14 04:20:45;;;;;;;3.15;1.80;;;4.70;99.90;;;;;;5073288;28;20040;-49
2021/03/14 04:23:16;;;;;;;2.15;1.58;;;4.70;99.90;;;;;;5072953;28;20035;-52
2021/03/14 04:25:43;;;;;;;3.83;1.30;;;4.70;99.90;;;;;;5072275;28;20028;-52
2021/03/14 04:28:10;;;;;;;2.13;1.23;;;4.70;99.90;;;;;;5072868;28;20020;-51
2021/03/14 04:30:36;;;;;;;1.92;1.33;;;4.70;99.90;;;;;;5071948;28;20024;-51
2021/03/14 04:33:04;;;;;;;3.03;1.35;;;4.70;99.90;;;;;;5072957;28;20033;-48
2021/03/14 04:35:30;;;;;;;3.70;1.40;;;4.60;99.90;;;;;;5073052;28;20040;-54
2021/03/14 04:37:57;;;;;;;2.10;1.25;;;4.70;99.90;;;;;;5072880;28;20024;-50
2021/03/14 04:40:23;;;;;;;4.35;1.40;;;4.70;99.90;;;;;;5071676;28;20025;-47
2021/03/14 04:42:51;;;;;;;2.33;1.42;;;4.60;99.90;;;;;;5072758;28;20035;-51
2021/03/14 04:45:17;;;;;;;1.73;1.10;;;4.70;99.90;;;;;;5072760;28;20188;-49
2021/03/14 04:47:45;;;;;;;3.00;0.85;;;4.70;99.90;;;;;;5072586;28;20036;-50
2021/03/14 04:50:16;;;;;;;1.42;0.98;;;4.60;99.90;;;;;;5072684;28;20037;-52
2021/03/14 04:52:49;;;;;;;0.63;0.63;;;4.60;99.90;;;;;;5072703;28;20112;-51
2021/03/14 04:55:16;;;;;;;0.82;0.70;;;4.60;99.90;;;;;;5071443;28;20695;-50
2021/03/14 04:57:43;;;;;;;0.93;0.80;;;4.60;99.90;;;;;;5072559;28;20051;-50
2021/03/14 05:00:11;;;;;;;0.63;0.60;;;4.60;99.90;;;;;;5072599;28;20418;-51
2021/03/14 05:02:39;;;;;;;0.90;0.90;;;4.60;99.90;;;;;;5072506;28;20510;-49
2021/03/14 05:05:05;;;;;;;0.77;0.50;;;4.60;99.90;;;;;;5072482;28;20074;-49
2021/03/14 05:07:32;;;;;;;1.23;0.43;;;4.50;99.90;;;;;;5072468;28;20024;-49
2021/03/14 05:10:00;;;;;;;2.10;0.80;;;4.50;99.90;;;;;;5071394;28;20464;-49
2021/03/14 05:12:26;;;;;;;1.15;0.60;;;4.50;99.90;;;;;;5071242;28;20090;-49
2021/03/14 05:14:52;;;;;;;0.80;0.50;;;4.50;99.90;;;;;;5072315;28;20035;-50
2021/03/14 05:17:19;;;;;;;1.23;0.45;;;4.50;99.90;;;;;;5072234;28;20387;-49
2021/03/14 05:19:45;;;;;;;0.68;0.43;;;4.50;99.90;;;;;;5069969;28;20427;-49
2021/03/14 05:22:11;;;;;;;1.20;0.50;;;4.50;99.90;;;;;;5071400;28;20494;-50
2021/03/14 05:24:39;;;;;;;0.55;0.50;;;4.50;99.90;;;;;;5071980;28;20472;-47
2021/03/14 05:27:05;;;;;;;0.50;0.40;;;4.50;99.90;;;;;;5071699;28;20432;-47
2021/03/14 05:29:32;;;;;;;0.98;0.50;;;4.50;99.90;;;;;;5072118;28;20031;-53
2021/03/14 05:31:58;;;;;;;1.10;0.55;;;4.50;99.90;;;;;;5073834;28;20048;-49
2021/03/14 05:34:25;;;;;;;0.85;0.57;;;4.50;99.90;;;;;;5075026;28;20041;-49
2021/03/14 05:36:50;;;;;;;1.15;0.50;;;4.50;99.90;;;;;;5076310;28;20361;-50
2021/03/14 05:39:16;;;;;;;0.43;0.43;;;4.50;99.90;;;;;;5076179;28;20033;-48
2021/03/14 05:41:43;;;;;;;0.88;0.60;;;4.50;99.90;;;;;;5075251;28;20028;-48
2021/03/14 05:44:10;;;;;;;1.00;0.68;;;4.50;99.90;;;;;;5076082;28;20100;-48
2021/03/14 05:46:36;;;;;;;0.57;0.55;;;4.50;99.90;;;;;;5076414;28;20035;-49
2021/03/14 05:49:06;;;;;;;0.75;0.60;;;4.50;99.90;;;;;;5075958;28;20021;-49
2021/03/14 05:51:50;;;;;;;1.75;0.50;;;4.50;99.90;;;;;;5076003;28;20131;-47
2021/03/14 05:54:17;;;;;;;0.85;0.50;;;4.50;99.90;;;;;;5075924;28;20522;-50
2021/03/14 05:56:45;;;;;;;0.68;0.68;;;4.60;99.90;;;;;;5075037;28;20028;-49
2021/03/14 05:59:13;;;;;;;0.77;0.60;;;4.50;99.90;;;;;;5075755;28;20027;-48
2021/03/14 06:01:40;;;;;;;0.73;0.73;;;4.60;99.90;;;;;;5075827;28;20033;-52
2021/03/14 06:04:10;;;;;;;0.90;0.50;;;4.60;99.90;;;;;;5075808;28;20055;-50
2021/03/14 06:06:37;;;;;;;1.38;0.85;;;4.60;99.90;;;;;;5075828;28;20017;-52
2021/03/14 06:09:03;;;;;;;1.13;0.50;;;4.60;99.90;;;;;;5075626;28;20107;-49
2021/03/14 06:11:29;;;;;;;0.82;0.60;;;4.60;99.90;;;;;;5074618;28;20067;-47
2021/03/14 06:13:55;;;;;;;0.82;0.60;;;4.60;99.90;;;;;;5075756;28;20119;-50
2021/03/14 06:16:21;;;;;;;1.25;0.82;;;4.60;99.90;;;;;;5075453;28;20111;-52
2021/03/14 06:18:49;;;;;;;1.25;0.43;;;4.60;99.90;;;;;;5075462;28;20036;-49
2021/03/14 06:21:22;;;;;;;0.60;0.60;;;4.60;99.90;;;;;;5075490;28;20125;-53
2021/03/14 06:24:04;;;;;;;0.50;0.50;;;4.60;99.90;;;;;;5075535;28;20468;-47
2021/03/14 06:26:37;;;;;;;0.85;0.70;;;4.60;99.90;;;;;;5074473;28;20029;-52
2021/03/14 06:29:17;;;;;;;0.60;0.50;;;4.60;99.90;;;;;;5075260;28;20586;-50
2021/03/14 06:31:59;;;;;;;1.58;0.40;;;4.60;99.90;;;;;;5074049;28;20396;-48
2021/03/14 06:34:31;;;;;;;0.60;0.60;;;4.70;99.90;;;;;;5075172;28;20404;-48
2021/03/14 06:37:16;;;;;;;0.65;0.47;;;4.70;99.90;;;;;;5075327;28;20475;-51
2021/03/14 06:39:45;;;;;;;1.08;0.75;;;4.70;99.90;;;;;;5074444;28;20029;-54
2021/03/14 06:42:32;;;;;;;0.38;0.32;;;4.70;99.90;;;;;;5074870;28;20032;-52
2021/03/14 06:45:06;;;;;;;0.68;0.52;;;4.80;99.90;;;;;;5074297;28;20066;-51
2021/03/14 06:47:41;;;;;;;0.40;0.40;;;4.80;99.90;;;;;;5074882;28;20043;-51
2021/03/14 06:50:09;;;;;;;0.80;0.60;;;4.80;99.90;;;;;;5074977;28;20024;-50
2021/03/14 06:52:36;;;;;;;1.00;0.60;;;4.90;99.90;;;;;;5075137;28;20507;-51
2021/03/14 06:55:03;;;;;;;1.20;0.60;;;4.90;99.90;;;;;;5067314;28;20052;-55
2021/03/14 06:57:28;;;;;;;0.65;0.65;;;4.90;99.90;;;;;;5069700;28;20047;-49
2021/03/14 07:00:01;;;;;;;1.30;0.80;;;5.00;99.90;;;;;;5077972;28;20472;-48
2021/03/14 07:02:28;;;;;;;1.15;0.85;;;5.00;99.90;;;;;;5092113;28;20047;-53
2021/03/14 07:04:57;;;;;;;1.00;0.85;;;5.00;99.90;;;;;;5073058;28;20368;-53
2021/03/14 07:07:41;;;;;;;0.93;0.90;;;5.00;99.90;;;;;;5072955;28;20154;-50
2021/03/14 07:10:15;;;;;;;1.10;1.00;;;5.00;99.90;;;;;;5071929;28;20216;-50
2021/03/14 07:12:45;;;;;;;1.23;1.13;;;5.00;99.90;;;;;;5080622;28;20043;-50
2021/03/14 07:15:11;;;;;;;1.45;1.33;;;5.10;99.90;;;;;;5075116;28;20067;-50
2021/03/14 07:17:37;;;;;;;3.05;1.33;;;5.10;99.90;;;;;;5072263;28;20056;-50
2021/03/14 07:20:26;;;;;;;1.33;1.10;;;5.10;99.90;;;;;;5072000;28;20027;-49
2021/03/14 07:23:07;;;;;;;2.47;1.08;;;5.10;99.90;;;;;;5071481;28;20195;-52
2021/03/14 07:25:41;;;;;;;1.20;1.10;;;5.10;99.90;;;;;;5070908;28;20070;-51
2021/03/14 07:28:07;;;;;;;1.27;1.00;;;5.10;99.90;;;;;;5070103;28;20384;-49
2021/03/14 07:30:33;;;;;;;1.10;1.00;;;5.10;99.90;;;;;;5074793;28;20028;-50
2021/03/14 07:32:59;;;;;;;2.45;1.10;;;5.10;99.90;;;;;;5092014;28;20073;-47
2021/03/14 07:35:25;;;;;;;1.38;1.23;;;5.10;99.90;;;;;;5091638;28;20036;-53
2021/03/14 07:37:53;;;;;;;2.15;1.30;;;5.10;99.90;;;;;;5091822;28;20031;-50
2021/03/14 07:40:21;;;;;;;4.22;1.60;;;5.10;99.90;;;;;;5087391;28;20033;-47
2021/03/14 07:42:48;;;;;;;1.83;1.30;;;5.10;99.90;;;;;;5077936;28;20024;-51
2021/03/14 07:45:16;;;;;;;1.98;1.63;;;5.10;99.90;;;;;;5091734;28;20486;-53
2021/03/14 07:47:44;;;;;;;1.67;1.50;;;5.10;99.90;;;;;;5091827;28;20153;-50
2021/03/14 07:50:19;;;;;;;2.70;1.70;;;5.20;99.90;;;;;;5090897;28;20090;-53
2021/03/14 07:52:45;;;;;;;2.92;2.22;;;5.20;99.90;;;;;;5071433;28;20033;-49
2021/03/14 07:55:22;;;;;;;3.30;1.73;;;5.20;99.90;;;;;;5069876;28;20046;-50
2021/03/14 07:57:49;;;;;;;3.67;1.85;;;5.20;99.90;;;;;;5071332;28;20479;-49
2021/03/14 08:00:36;;;;;;;3.97;1.85;;;5.20;99.90;;;;;;5076909;28;20035;-53
2021/03/14 08:03:07;;;;;;;1.70;1.50;;;5.20;99.90;;;;;;5083629;28;20036;-49
2021/03/14 08:05:39;;;;;;;2.38;1.65;;;5.20;99.90;;;;;;5071154;28;20021;-51
2021/03/14 08:08:25;;;;;;;3.83;1.63;;;5.20;99.90;;;;;;5071173;28;20035;-50
2021/03/14 08:10:52;;;;;;;3.42;1.75;;;5.30;99.90;;;;;;5055863;28;20036;-54
2021/03/14 08:13:42;;;;;;;2.80;1.63;;;5.30;99.90;;;;;;5070829;28;20048;-53
2021/03/14 08:16:13;;;;;;;3.22;1.90;;;5.40;99.90;;;;;;5058915;28;20041;-51
2021/03/14 08:18:47;;;;;;;6.20;3.30;;;5.40;99.90;;;;;;5071343;28;20033;-48
2021/03/14 08:21:21;;;;;;;2.65;1.92;;;5.40;99.90;;;;;;5071220;28;20052;-48
2021/03/14 08:23:48;;;;;;;3.65;1.80;;;5.40;99.90;;;;;;5070835;28;20031;-49
2021/03/14 08:26:21;;;;;;;4.10;1.70;;;5.40;99.90;;;;;;5070106;28;20383;-50
2021/03/14 08:28:56;;;;;;;4.75;1.98;;;5.50;99.90;;;;;;5070796;28;20078;-51
2021/03/14 08:31:49;;;;;;;2.67;1.25;;;5.60;99.90;;;;;;5070972;28;20161;-51
2021/03/14 08:34:44;;;;;;;4.25;1.55;;;5.70;99.90;;;;;;5070973;28;20036;-46
2021/03/14 08:37:22;;;;;;;3.28;1.42;;;5.80;99.90;;;;;;5070928;28;20016;-51
2021/03/14 08:39:48;;;;;;;2.75;1.42;;;5.90;99.90;;;;;;5070212;28;20078;-51
2021/03/14 08:42:13;;;;;;;2.83;1.60;;;5.90;99.90;;;;;;5070829;28;20487;-51
2021/03/14 08:44:46;;;;;;;2.22;1.30;;;6.00;99.90;;;;;;5070512;28;20078;-54
2021/03/14 08:47:13;;;;;;;2.83;1.77;;;6.00;99.90;;;;;;5090898;28;20039;-48
2021/03/14 08:49:48;;;;;;;2.35;1.67;;;6.00;99.90;;;;;;5090863;28;20024;-49
2021/03/14 08:52:15;;;;;;;3.97;1.60;;;6.00;99.90;;;;;;5070755;28;20074;-50
2021/03/14 08:54:44;;;;;;;3.38;1.50;;;6.00;99.90;;;;;;5068176;28;20044;-48
2021/03/14 08:57:15;;;;;;;5.20;1.55;;;6.00;99.90;;;;;;5070546;28;20055;-50
2021/03/14 08:59:50;;;;;;;1.83;1.20;;;6.00;99.90;;;;;;5070079;28;20107;-49
2021/03/14 09:02:26;;;;;;;2.10;1.13;;;6.00;99.90;;;;;;5070267;28;20064;-53
2021/03/14 09:05:07;;;;;;;1.70;1.08;;;6.00;99.90;;;;;;5070246;28;20021;-50
2021/03/14 09:07:33;;;;;;;1.17;1.00;;;6.00;99.90;;;;;;5069419;28;20048;-53
2021/03/14 09:10:09;;;;;;;2.95;1.20;;;6.00;99.90;;;;;;5069397;28;20059;-53
2021/03/14 09:12:35;;;;;;;1.90;1.10;;;6.00;99.90;;;;;;5068909;28;20388;-51
2021/03/14 09:15:06;;;;;;;2.15;1.08;;;6.00;99.90;;;;;;5070263;28;20036;-51
2021/03/14 09:17:38;;;;;;;2.83;1.30;;;6.00;99.90;;;;;;5070259;28;20059;-53
2021/03/14 09:20:06;;;;;;;1.83;1.50;;;6.00;99.90;;;;;;5070065;28;20423;-47
2021/03/14 09:22:32;;;;;;;2.50;1.60;;;6.10;99.90;;;;;;5070026;28;20110;-54
2021/03/14 09:25:04;;;;;;;1.75;1.48;;;6.20;99.90;;;;;;5069397;28;20507;-50
2021/03/14 09:27:38;;;;;;;2.60;1.20;;;6.40;99.90;;;;;;5069985;28;20380;-51
2021/03/14 09:30:22;;;;;;;2.15;1.25;;;6.50;99.90;;;;;;5069910;28;20468;-52
2021/03/14 09:33:02;;;;;;;1.73;1.25;;;6.60;99.90;;;;;;5070482;28;20060;-51
2021/03/14 09:35:35;;;;;;;3.03;1.17;;;6.60;99.90;;;;;;5058649;28;20031;-46
2021/03/14 09:38:11;;;;;;;2.40;1.17;;;6.60;99.90;;;;;;5071581;28;20111;-50
2021/03/14 09:40:48;;;;;;;2.35;1.35;;;6.70;99.90;;;;;;5070242;28;20103;-52
2021/03/14 09:43:26;;;;;;;4.93;2.05;;;6.90;99.90;;;;;;5071217;28;20139;-51
2021/03/14 09:45:54;;;;;;;2.75;1.23;;;7.00;99.90;;;;;;5071241;28;20030;-51
2021/03/14 09:48:26;;;;;;;3.33;1.60;;;7.10;99.90;;;;;;5071588;28;20055;-48
2021/03/14 09:51:04;;;;;;;3.92;1.67;;;7.10;99.90;;;;;;5071336;28;20024;-49
2021/03/14 09:53:36;;;;;;;2.05;1.67;;;7.20;99.90;;;;;;5071734;28;20483;-53
2021/03/14 09:56:07;;;;;;;5.68;2.30;;;7.20;99.90;;;;;;5062457;28;20063;-50
2021/03/14 09:58:34;;;;;;;6.45;2.53;;;7.10;99.90;;;;;;5071408;28;20460;-50
2021/03/14 10:01:01;;;;;;;3.30;2.05;;;7.00;99.90;;;;;;5071397;28;20111;-48
2021/03/14 10:03:29;;;;;;;4.43;1.77;;;7.10;99.90;;;;;;5071156;28;20115;-49
2021/03/14 10:06:00;;;;;;;4.93;1.80;;;7.20;99.90;;;;;;5071107;28;20032;-52
2021/03/14 10:08:28;;;;;;;3.58;1.23;;;7.50;99.90;;;;;;5071360;28;20388;-48
2021/03/14 10:11:01;;;;;;;1.45;1.20;;;7.60;99.90;;;;;;5070145;28;20024;-51
2021/03/14 10:13:28;;;;;;;2.08;1.38;;;7.90;99.90;;;;;;5071376;28;20435;-53
2021/03/14 10:15:55;;;;;;;5.93;2.00;;;8.10;99.90;;;;;;5064631;28;20024;-53
2021/03/14 10:18:23;;;;;;;3.10;1.50;;;8.50;99.90;;;;;;5071282;28;20025;-50
2021/03/14 10:20:50;;;;;;;2.42;1.90;;;8.90;99.90;;;;;;5075013;28;20077;-53
2021/03/14 10:23:23;;;;;;;3.78;1.52;;;9.10;99.90;;;;;;5074931;28;20028;-49
2021/03/14 10:25:49;;;;;;;7.10;2.28;;;9.10;99.90;;;;;;5073839;28;20020;-46
2021/03/14 10:28:17;;;;;;;3.85;2.20;;;9.10;99.90;;;;;;5075042;28;20025;-50
2021/03/14 10:30:45;;;;;;;5.53;2.45;;;9.10;99.90;;;;;;5083947;28;20024;-52
2021/03/14 10:33:15;;;;;;;3.05;1.70;;;9.10;99.30;;;;;;5095103;28;20546;-48
2021/03/14 10:35:43;;;;;;;5.13;2.10;;;9.00;99.50;;;;;;5094870;28;20028;-50
2021/03/14 10:38:20;;;;;;;5.72;1.85;;;8.80;99.90;;;;;;5071722;28;20035;-48
2021/03/14 10:40:46;;;;;;;3.30;2.10;;;8.60;99.90;;;;;;5073691;28;20028;-50
2021/03/14 10:43:24;;;;;;;4.40;2.30;;;8.40;99.90;;;;;;5088775;28;20128;-50
2021/03/14 10:45:52;;;;;;;3.20;1.85;;;8.20;99.90;;;;;;5093485;28;20475;-54
2021/03/14 10:48:28;;;;;;;2.53;1.67;;;8.10;99.90;;;;;;5094682;28;20533;-54
2021/03/14 10:51:02;;;;;;;3.92;1.60;;;8.00;99.90;;;;;;5087733;28;20019;-49
2021/03/14 10:53:27;;;;;;;3.45;1.55;;;7.80;99.90;;;;;;5074552;28;20038;-49
2021/03/14 10:56:12;;;;;;;2.25;1.50;;;7.70;99.90;;;;;;5073084;28;20040;-50
2021/03/14 10:58:41;;;;;;;3.97;1.98;;;7.60;99.90;;;;;;5074251;28;20024;-50
2021/03/14 11:01:11;;;;;;;2.15;1.40;;;7.70;99.90;;;;;;5074314;28;20085;-50
2021/03/14 11:03:39;;;;;;;3.72;1.40;;;7.80;99.90;;;;;;5073893;28;20056;-48
2021/03/14 11:06:16;;;;;;;5.05;2.00;;;8.00;99.90;;;;;;5074191;28;20048;-50
2021/03/14 11:08:55;;;;;;;3.38;1.80;;;8.30;99.90;;;;;;5074094;28;20120;-47
2021/03/14 11:11:28;;;;;;;4.10;2.30;;;8.30;99.90;;;;;;5073364;28;20523;-50
2021/03/14 11:13:54;;;;;;;7.28;2.25;;;8.10;99.90;;;;;;5073997;28;20032;-47
2021/03/14 11:16:25;;;;;;;5.15;1.95;;;7.90;99.90;;;;;;5073983;28;20166;-50
2021/03/14 11:19:03;;;;;;;3.63;1.50;;;7.70;99.90;;;;;;5073727;28;20490;-48
2021/03/14 11:21:28;;;;;;;7.63;2.58;;;7.70;99.90;;;;;;5070337;28;20025;-51
2021/03/14 11:23:54;;;;;;;5.00;1.67;;;7.60;99.90;;;;;;5073457;28;20025;-49
2021/03/14 11:26:19;;;;;;;2.63;1.73;;;7.50;99.90;;;;;;5072696;28;20029;-48
2021/03/14 11:28:46;;;;;;;2.65;2.00;;;7.40;99.90;;;;;;5072874;28;20036;-49
2021/03/14 11:31:12;;;;;;;4.65;2.03;;;7.50;99.90;;;;;;5072629;28;20048;-48
2021/03/14 11:33:37;;;;;;;5.18;2.67;;;7.60;99.90;;;;;;5073046;28;20064;-49
2021/03/14 11:36:03;;;;;;;3.90;1.90;;;7.80;99.90;;;;;;5072231;28;20100;-49
2021/03/14 11:38:29;;;;;;;2.60;1.38;;;8.00;99.90;;;;;;5073736;28;20025;-51
2021/03/14 11:40:56;;;;;;;3.72;1.70;;;8.30;99.90;;;;;;5072241;28;20025;-49
2021/03/14 11:43:23;;;;;;;6.10;1.70;;;8.50;99.90;;;;;;5065926;28;20024;-53
2021/03/14 11:45:48;;;;;;;3.33;1.70;;;8.60;99.90;;;;;;5073728;28;20384;-50
2021/03/14 11:48:14;;;;;;;6.45;2.13;;;8.80;99.90;;;;;;5071265;28;20036;-51
2021/03/14 11:50:41;;;;;;;3.30;1.38;;;9.00;99.90;;;;;;5072443;28;20023;-51
2021/03/14 11:53:06;;;;;;;6.68;2.33;;;9.20;99.90;;;;;;5077060;28;20481;-51
2021/03/14 11:55:32;;;;;;;4.80;2.20;;;9.40;99.90;;;;;;5070124;28;20133;-49
2021/03/14 11:57:58;;;;;;;11.18;2.75;;;9.70;99.90;;;;;;5072023;28;20458;-51
2021/03/14 12:00:24;;;;;;;3.85;2.00;;;9.80;99.90;;;;;;5071204;28;20506;-48
2021/03/14 12:02:49;;;;;;;3.95;2.13;;;10.10;99.90;;;;;;5068270;28;20041;-49
2021/03/14 12:05:15;;;;;;;5.20;2.28;;;10.20;99.90;;;;;;5069242;28;20025;-47
2021/03/14 12:07:40;;;;;;;4.75;1.58;;;10.20;99.40;;;;;;5072585;28;20028;-48
2021/03/14 12:10:07;;;;;;;10.57;2.65;;;10.30;99.10;;;;;;5071022;28;20021;-51
2021/03/14 12:12:32;;;;;;;6.28;2.38;;;10.50;98.50;;;;;;5071540;28;20029;-49
2021/03/14 12:14:58;;;;;;;4.03;2.38;;;10.60;98.00;;;;;;5072114;28;20029;-51
2021/03/14 12:17:24;;;;;;;5.50;1.92;;;10.60;97.50;;;;;;5071488;28;20036;-51
2021/03/14 12:19:50;;;;;;;3.88;1.88;;;10.50;96.40;;;;;;5072172;28;20479;-47
2021/03/14 12:22:15;;;;;;;5.43;2.17;;;10.50;96.20;;;;;;5071566;28;20166;-48
2021/03/14 12:24:41;;;;;;;6.68;2.38;;;10.50;95.90;;;;;;5063596;28;20099;-51
2021/03/14 12:27:07;;;;;;;4.15;1.77;;;10.40;96.30;;;;;;5070963;28;20074;-52
2021/03/14 12:29:32;;;;;;;4.15;1.77;;;10.50;96.40;;;;;;5072534;28;20494;-47
2021/03/14 12:31:58;;;;;;;7.82;2.00;;;10.50;96.90;;;;;;5079239;28;20032;-49
2021/03/14 12:34:23;;;;;;;3.90;1.70;;;10.50;96.20;;;;;;5092439;28;20039;-48
2021/03/14 12:36:49;;;;;;;3.03;1.40;;;10.40;96.20;;;;;;5092882;28;20388;-50
2021/03/14 12:39:14;;;;;;;5.22;1.90;;;10.20;96.40;;;;;;5093183;28;20024;-49
2021/03/14 12:41:40;;;;;;;6.10;1.92;;;10.00;96.00;;;;;;5083153;28;20491;-52
2021/03/14 12:44:06;;;;;;;7.45;2.03;;;9.90;94.50;;;;;;5072684;28;20028;-45
2021/03/14 12:46:31;;;;;;;4.45;1.90;;;9.90;95.40;;;;;;5071176;28;20021;-47
2021/03/14 12:48:57;;;;;;;4.38;1.90;;;10.00;95.30;;;;;;5072466;28;20104;-49
2021/03/14 12:51:22;;;;;;;6.93;1.75;;;10.10;94.30;;;;;;5071783;28;20468;-48
2021/03/14 12:53:48;;;;;;;6.45;2.25;;;10.40;94.00;;;;;;5072367;28;20025;-49
2021/03/14 12:56:13;;;;;;;4.13;1.45;;;10.60;93.10;;;;;;5071623;28;20391;-48
2021/03/14 12:58:39;;;;;;;3.72;1.70;;;10.70;92.20;;;;;;5087151;28;20073;-51
2021/03/14 13:01:04;;;;;;;4.30;1.45;;;10.80;91.60;;;;;;5092283;28;20367;-46
2021/03/14 13:03:30;;;;;;;3.78;1.52;;;10.80;91.80;;;;;;5092650;28;20383;-49